Sokoto, Nigeria
Current Conditions -  °F | °C
As of 12:00 PM on Tuesday 21 Oct 2014 (Local Time) from DRRN Reporting Station
Clear Clear  
Wind Chill: 99°   Ceiling: Unl
Heat Index: 99°   Visibility: 5mi
Dew Point: 34°   Wind: 17mph
Humidity: 10%   Direction: 60°ENE
Pressure: 29.91"   Gusts: NA
Location:  13.07°N, 5.24°E
Report Text: DRRN 211100Z 06015KT 030V090 8000 NSC 37/01 Q1013 NOSIG
Loading
Personal Weather Stations






























Interactive Weather Map
Tropical Storm Tracking
New forecast layout! Learn more

10-Day Weather Forecast

Advertisements
Track Severe Weather on mobile